sensor_id;sensor_type;location;lat;lon;timestamp;pressure;altitude;pressure_sealevel;temperature;humidity
16355;BME280;8287;51.644;8.494;2023-05-02T00:00:43;100501.56;;;14.53;86.50
16355;BME280;8287;51.644;8.494;2023-05-02T00:03:10;100509.25;;;14.54;86.81
16355;BME280;8287;51.644;8.494;2023-05-02T00:05:37;100506.91;;;14.53;86.84
16355;BME280;8287;51.644;8.494;2023-05-02T00:08:04;100510.81;;;14.55;86.89
16355;BME280;8287;51.644;8.494;2023-05-02T00:10:31;100508.59;;;14.57;86.94
16355;BME280;8287;51.644;8.494;2023-05-02T00:12:59;100504.81;;;14.58;86.70
16355;BME280;8287;51.644;8.494;2023-05-02T00:15:26;100506.38;;;14.59;87.39
16355;BME280;8287;51.644;8.494;2023-05-02T00:17:52;100505.25;;;14.60;86.34
16355;BME280;8287;51.644;8.494;2023-05-02T00:20:19;100503.69;;;14.59;87.05
16355;BME280;8287;51.644;8.494;2023-05-02T00:22:46;100513.25;;;14.60;86.50
16355;BME280;8287;51.644;8.494;2023-05-02T00:25:12;100513.72;;;14.62;86.54
16355;BME280;8287;51.644;8.494;2023-05-02T00:27:41;100504.63;;;14.63;86.42
16355;BME280;8287;51.644;8.494;2023-05-02T00:30:10;100515.16;;;14.60;86.67
16355;BME280;8287;51.644;8.494;2023-05-02T00:32:37;100517.69;;;14.56;86.76
16355;BME280;8287;51.644;8.494;2023-05-02T00:35:04;100517.25;;;14.54;86.69
16355;BME280;8287;51.644;8.494;2023-05-02T00:37:31;100516.13;;;14.55;86.67
16355;BME280;8287;51.644;8.494;2023-05-02T00:39:57;100524.59;;;14.57;87.00
16355;BME280;8287;51.644;8.494;2023-05-02T00:42:24;100524.91;;;14.56;86.99
16355;BME280;8287;51.644;8.494;2023-05-02T00:44:50;100541.13;;;14.51;87.55
16355;BME280;8287;51.644;8.494;2023-05-02T00:47:19;100535.78;;;14.51;87.24
16355;BME280;8287;51.644;8.494;2023-05-02T00:49:45;100530.91;;;14.53;87.09
16355;BME280;8287;51.644;8.494;2023-05-02T00:52:12;100526.09;;;14.46;87.82
16355;BME280;8287;51.644;8.494;2023-05-02T00:54:39;100528.84;;;14.50;86.90
16355;BME280;8287;51.644;8.494;2023-05-02T00:57:05;100531.53;;;14.50;87.63
16355;BME280;8287;51.644;8.494;2023-05-02T00:59:33;100533.44;;;14.49;86.93
16355;BME280;8287;51.644;8.494;2023-05-02T01:02:09;100534.53;;;14.48;87.03
16355;BME280;8287;51.644;8.494;2023-05-02T01:04:43;100525.75;;;14.48;87.13
16355;BME280;8287;51.644;8.494;2023-05-02T01:07:27;100530.44;;;14.51;86.13
16355;BME280;8287;51.644;8.494;2023-05-02T01:10:06;100532.78;;;14.52;86.24
16355;BME280;8287;51.644;8.494;2023-05-02T01:12:41;100527.44;;;14.52;86.10
16355;BME280;8287;51.644;8.494;2023-05-02T01:15:11;100532.91;;;14.56;86.24
16355;BME280;8287;51.644;8.494;2023-05-02T01:17:43;100531.66;;;14.53;86.10
16355;BME280;8287;51.644;8.494;2023-05-02T01:20:16;100540.44;;;14.54;85.99
16355;BME280;8287;51.644;8.494;2023-05-02T01:22:45;100545.13;;;14.57;86.09
16355;BME280;8287;51.644;8.494;2023-05-02T01:25:19;100535.78;;;14.51;86.30
16355;BME280;8287;51.644;8.494;2023-05-02T01:27:55;100543.44;;;14.52;85.96
16355;BME280;8287;51.644;8.494;2023-05-02T01:30:26;100543.66;;;14.47;86.20
16355;BME280;8287;51.644;8.494;2023-05-02T01:32:56;100548.03;;;14.43;86.70
16355;BME280;8287;51.644;8.494;2023-05-02T01:35:24;100556.69;;;14.40;86.44
16355;BME280;8287;51.644;8.494;2023-05-02T01:37:51;100549.38;;;14.37;86.28
16355;BME280;8287;51.644;8.494;2023-05-02T01:40:20;100559.22;;;14.37;86.56
16355;BME280;8287;51.644;8.494;2023-05-02T01:42:50;100556.13;;;14.35;87.02
16355;BME280;8287;51.644;8.494;2023-05-02T01:45:19;100559.09;;;14.33;87.15
16355;BME280;8287;51.644;8.494;2023-05-02T01:47:47;100557.41;;;14.29;87.61
16355;BME280;8287;51.644;8.494;2023-05-02T01:50:17;100568.50;;;14.31;87.67
16355;BME280;8287;51.644;8.494;2023-05-02T01:52:46;100571.97;;;14.31;87.62
16355;BME280;8287;51.644;8.494;2023-05-02T01:55:15;100567.88;;;14.34;86.93
16355;BME280;8287;51.644;8.494;2023-05-02T01:57:44;100573.84;;;14.31;87.78
16355;BME280;8287;51.644;8.494;2023-05-02T02:00:13;100571.63;;;14.33;87.57
16355;BME280;8287;51.644;8.494;2023-05-02T02:02:42;100577.75;;;14.33;86.94
16355;BME280;8287;51.644;8.494;2023-05-02T02:05:12;100576.06;;;14.29;87.59
16355;BME280;8287;51.644;8.494;2023-05-02T02:07:39;100576.84;;;14.29;87.34
16355;BME280;8287;51.644;8.494;2023-05-02T02:10:06;100583.91;;;14.25;87.95
16355;BME280;8287;51.644;8.494;2023-05-02T02:12:37;100580.59;;;14.28;87.40
16355;BME280;8287;51.644;8.494;2023-05-02T02:15:08;100589.25;;;14.25;87.68
16355;BME280;8287;51.644;8.494;2023-05-02T02:17:39;100588.13;;;14.26;87.10
16355;BME280;8287;51.644;8.494;2023-05-02T02:20:09;100587.03;;;14.27;87.42
16355;BME280;8287;51.644;8.494;2023-05-02T02:22:39;100593.81;;;14.25;87.11
16355;BME280;8287;51.644;8.494;2023-05-02T02:25:10;100587.84;;;14.19;87.34
16355;BME280;8287;51.644;8.494;2023-05-02T02:27:37;100600.06;;;14.20;87.40
16355;BME280;8287;51.644;8.494;2023-05-02T02:30:06;100605.41;;;14.20;87.16
16355;BME280;8287;51.644;8.494;2023-05-02T02:32:33;100602.44;;;14.22;86.58
16355;BME280;8287;51.644;8.494;2023-05-02T02:35:01;100613.56;;;14.15;87.82
16355;BME280;8287;51.644;8.494;2023-05-02T02:37:30;100617.94;;;14.11;87.87
16355;BME280;8287;51.644;8.494;2023-05-02T02:40:03;100618.75;;;14.03;88.15
16355;BME280;8287;51.644;8.494;2023-05-02T02:42:35;100619.88;;;14.02;88.32
16355;BME280;8287;51.644;8.494;2023-05-02T02:45:12;100626.31;;;14.01;88.05
16355;BME280;8287;51.644;8.494;2023-05-02T02:47:43;100628.34;;;14.04;88.19
16355;BME280;8287;51.644;8.494;2023-05-02T02:50:15;100625.25;;;13.94;88.71
16355;BME280;8287;51.644;8.494;2023-05-02T02:52:51;100634.66;;;13.91;88.90
16355;BME280;8287;51.644;8.494;2023-05-02T02:55:28;100635.44;;;13.92;88.87
16355;BME280;8287;51.644;8.494;2023-05-02T02:57:59;100638.72;;;13.89;89.07
16355;BME280;8287;51.644;8.494;2023-05-02T03:00:28;100636.84;;;13.89;89.49
16355;BME280;8287;51.644;8.494;2023-05-02T03:02:55;100638.88;;;13.92;88.75
16355;BME280;8287;51.644;8.494;2023-05-02T03:05:22;100638.25;;;13.87;88.74
16355;BME280;8287;51.644;8.494;2023-05-02T03:07:50;100646.41;;;13.82;88.92
16355;BME280;8287;51.644;8.494;2023-05-02T03:10:17;100650.19;;;13.81;88.73
16355;BME280;8287;51.644;8.494;2023-05-02T03:12:44;100654.44;;;13.73;86.72
16355;BME280;8287;51.644;8.494;2023-05-02T03:15:24;100655.69;;;13.67;86.90
16355;BME280;8287;51.644;8.494;2023-05-02T03:17:54;100664.16;;;13.69;86.36
16355;BME280;8287;51.644;8.494;2023-05-02T03:20:20;100667.91;;;13.68;87.07
16355;BME280;8287;51.644;8.494;2023-05-02T03:22:47;100665.25;;;13.68;86.67
16355;BME280;8287;51.644;8.494;2023-05-02T03:25:14;100662.13;;;13.66;86.55
16355;BME280;8287;51.644;8.494;2023-05-02T03:27:40;100662.59;;;13.60;86.04
16355;BME280;8287;51.644;8.494;2023-05-02T03:30:09;100671.50;;;13.64;86.04
16355;BME280;8287;51.644;8.494;2023-05-02T03:32:36;100671.38;;;13.60;86.13
16355;BME280;8287;51.644;8.494;2023-05-02T03:35:02;100670.25;;;13.61;86.09
16355;BME280;8287;51.644;8.494;2023-05-02T03:37:29;100674.34;;;13.59;85.97
16355;BME280;8287;51.644;8.494;2023-05-02T03:39:56;100673.25;;;13.60;86.30
16355;BME280;8287;51.644;8.494;2023-05-02T03:42:23;100680.31;;;13.64;85.94
16355;BME280;8287;51.644;8.494;2023-05-02T03:44:51;100674.97;;;13.64;86.18
16355;BME280;8287;51.644;8.494;2023-05-02T03:47:19;100680.59;;;13.63;86.11
16355;BME280;8287;51.644;8.494;2023-05-02T03:49:45;100669.97;;;13.63;85.96
16355;BME280;8287;51.644;8.494;2023-05-02T03:52:12;100672.00;;;13.57;86.00
16355;BME280;8287;51.644;8.494;2023-05-02T03:54:39;100674.06;;;13.52;86.14
16355;BME280;8287;51.644;8.494;2023-05-02T03:57:05;100682.50;;;13.54;86.47
16355;BME280;8287;51.644;8.494;2023-05-02T03:59:33;100684.84;;;13.47;86.92
16355;BME280;8287;51.644;8.494;2023-05-02T04:01:59;100690.03;;;13.35;87.43
16355;BME280;8287;51.644;8.494;2023-05-02T04:04:27;100695.34;;;13.35;87.60
16355;BME280;8287;51.644;8.494;2023-05-02T04:06:54;100700.03;;;13.29;88.29
16355;BME280;8287;51.644;8.494;2023-05-02T04:09:20;100700.22;;;13.33;88.10
16355;BME280;8287;51.644;8.494;2023-05-02T04:11:49;100700.03;;;13.29;88.00
16355;BME280;8287;51.644;8.494;2023-05-02T04:14:16;100705.66;;;13.36;88.16
16355;BME280;8287;51.644;8.494;2023-05-02T04:16:46;100710.69;;;13.38;88.06
16355;BME280;8287;51.644;8.494;2023-05-02T04:19:13;100710.84;;;13.41;87.91
16355;BME280;8287;51.644;8.494;2023-05-02T04:21:41;100702.69;;;13.38;87.82
16355;BME280;8287;51.644;8.494;2023-05-02T04:24:08;100723.38;;;13.41;88.13
16355;BME280;8287;51.644;8.494;2023-05-02T04:26:34;100721.16;;;13.34;88.17
16355;BME280;8287;51.644;8.494;2023-05-02T04:29:01;100726.50;;;13.26;88.65
16355;BME280;8287;51.644;8.494;2023-05-02T04:31:30;100727.59;;;13.25;88.98
16355;BME280;8287;51.644;8.494;2023-05-02T04:33:56;100728.97;;;13.06;89.68
16355;BME280;8287;51.644;8.494;2023-05-02T04:36:23;100735.84;;;13.07;89.88
16355;BME280;8287;51.644;8.494;2023-05-02T04:38:51;100736.78;;;13.11;89.77
16355;BME280;8287;51.644;8.494;2023-05-02T04:41:20;100736.78;;;13.11;89.70
16355;BME280;8287;51.644;8.494;2023-05-02T04:43:47;100742.09;;;13.11;90.01
16355;BME280;8287;51.644;8.494;2023-05-02T04:46:15;100748.84;;;13.08;90.17
16355;BME280;8287;51.644;8.494;2023-05-02T04:48:41;100750.72;;;13.08;90.14
16355;BME280;8287;51.644;8.494;2023-05-02T04:51:08;100756.03;;;13.08;89.86
16355;BME280;8287;51.644;8.494;2023-05-02T04:53:36;100751.19;;;13.01;90.63
16355;BME280;8287;51.644;8.494;2023-05-02T04:56:04;100749.63;;;13.00;91.03
16355;BME280;8287;51.644;8.494;2023-05-02T04:58:31;100756.81;;;13.00;90.51
16355;BME280;8287;51.644;8.494;2023-05-02T05:00:59;100763.22;;;12.99;91.03
16355;BME280;8287;51.644;8.494;2023-05-02T05:03:26;100764.41;;;12.93;91.84
16355;BME280;8287;51.644;8.494;2023-05-02T05:05:54;100764.91;;;12.95;91.79
16355;BME280;8287;51.644;8.494;2023-05-02T05:08:20;100772.28;;;12.98;91.84
16355;BME280;8287;51.644;8.494;2023-05-02T05:10:47;100768.53;;;12.99;91.50
16355;BME280;8287;51.644;8.494;2023-05-02T05:13:15;100774.16;;;12.97;92.34
16355;BME280;8287;51.644;8.494;2023-05-02T05:15:41;100777.44;;;13.03;91.64
16355;BME280;8287;51.644;8.494;2023-05-02T05:18:08;100776.81;;;12.97;92.20
16355;BME280;8287;51.644;8.494;2023-05-02T05:20:35;100778.22;;;12.95;92.86
16355;BME280;8287;51.644;8.494;2023-05-02T05:23:02;100786.19;;;12.95;93.92
16355;BME280;8287;51.644;8.494;2023-05-02T05:25:28;100784.28;;;12.87;94.51
16355;BME280;8287;51.644;8.494;2023-05-02T05:27:55;100789.59;;;12.87;94.74
16355;BME280;8287;51.644;8.494;2023-05-02T05:30:23;100798.16;;;12.84;94.83
16355;BME280;8287;51.644;8.494;2023-05-02T05:32:50;100794.13;;;12.86;94.78
16355;BME280;8287;51.644;8.494;2023-05-02T05:35:17;100797.41;;;12.92;94.60
16355;BME280;8287;51.644;8.494;2023-05-02T05:37:43;100805.09;;;12.93;94.99
16355;BME280;8287;51.644;8.494;2023-05-02T05:40:10;100810.53;;;12.88;95.32
16355;BME280;8287;51.644;8.494;2023-05-02T05:42:37;100810.69;;;12.83;95.20
16355;BME280;8287;51.644;8.494;2023-05-02T05:45:04;100811.91;;;12.77;95.15
16355;BME280;8287;51.644;8.494;2023-05-02T05:47:32;100816.94;;;12.79;95.08
16355;BME280;8287;51.644;8.494;2023-05-02T05:49:59;100815.84;;;12.80;95.18
16355;BME280;8287;51.644;8.494;2023-05-02T05:52:25;100817.59;;;12.84;95.79
16355;BME280;8287;51.644;8.494;2023-05-02T05:54:53;100827.56;;;12.79;96.09
16355;BME280;8287;51.644;8.494;2023-05-02T05:57:20;100818.19;;;12.81;96.23
16355;BME280;8287;51.644;8.494;2023-05-02T05:59:46;100820.81;;;12.73;96.74
16355;BME280;8287;51.644;8.494;2023-05-02T06:02:13;100827.59;;;12.57;97.11
16355;BME280;8287;51.644;8.494;2023-05-02T06:04:42;100836.25;;;12.62;97.82
16355;BME280;8287;51.644;8.494;2023-05-02T06:07:08;100838.59;;;12.64;98.00
16355;BME280;8287;51.644;8.494;2023-05-02T06:09:35;100839.25;;;12.69;97.61
16355;BME280;8287;51.644;8.494;2023-05-02T06:12:01;100834.41;;;12.71;98.18
16355;BME280;8287;51.644;8.494;2023-05-02T06:14:28;100843.28;;;12.67;98.30
16355;BME280;8287;51.644;8.494;2023-05-02T06:16:57;100838.81;;;12.76;98.08
16355;BME280;8287;51.644;8.494;2023-05-02T06:19:24;100844.75;;;12.73;97.74
16355;BME280;8287;51.644;8.494;2023-05-02T06:21:52;100842.84;;;12.73;98.44
16355;BME280;8287;51.644;8.494;2023-05-02T06:24:18;100849.72;;;12.66;98.26
16355;BME280;8287;51.644;8.494;2023-05-02T06:26:45;100854.75;;;12.76;98.35
16355;BME280;8287;51.644;8.494;2023-05-02T06:29:12;100860.56;;;12.78;98.50
16355;BME280;8287;51.644;8.494;2023-05-02T06:31:39;100866.38;;;12.80;98.69
16355;BME280;8287;51.644;8.494;2023-05-02T06:34:05;100867.47;;;12.79;97.83
16355;BME280;8287;51.644;8.494;2023-05-02T06:36:32;100876.75;;;12.68;97.52
16355;BME280;8287;51.644;8.494;2023-05-02T06:39:00;100879.31;;;12.73;97.49
16355;BME280;8287;51.644;8.494;2023-05-02T06:41:26;100886.56;;;12.81;95.68
16355;BME280;8287;51.644;8.494;2023-05-02T06:43:53;100885.94;;;12.84;93.88
16355;BME280;8287;51.644;8.494;2023-05-02T06:46:20;100892.81;;;12.85;92.78
16355;BME280;8287;51.644;8.494;2023-05-02T06:48:46;100900.56;;;12.95;92.99
16355;BME280;8287;51.644;8.494;2023-05-02T06:51:13;100894.66;;;12.98;92.29
16355;BME280;8287;51.644;8.494;2023-05-02T06:53:40;100898.09;;;12.98;91.50
16355;BME280;8287;51.644;8.494;2023-05-02T06:56:08;100909.25;;;13.09;90.25
16355;BME280;8287;51.644;8.494;2023-05-02T06:58:35;100917.13;;;13.14;90.96
16355;BME280;8287;51.644;8.494;2023-05-02T07:01:01;100921.19;;;13.19;90.22
16355;BME280;8287;51.644;8.494;2023-05-02T07:03:28;100921.38;;;13.23;90.52
16355;BME280;8287;51.644;8.494;2023-05-02T07:05:55;100928.31;;;13.32;90.73
16355;BME280;8287;51.644;8.494;2023-05-02T07:08:25;100934.44;;;13.41;88.62
16355;BME280;8287;51.644;8.494;2023-05-02T07:10:51;100933.16;;;13.30;87.95
16355;BME280;8287;51.644;8.494;2023-05-02T07:13:19;100943.34;;;13.37;87.35
16355;BME280;8287;51.644;8.494;2023-05-02T07:15:46;100948.63;;;12.98;87.13
16355;BME280;8287;51.644;8.494;2023-05-02T07:18:12;100953.75;;;12.73;86.87
16355;BME280;8287;51.644;8.494;2023-05-02T07:20:39;100950.69;;;13.01;88.45
16355;BME280;8287;51.644;8.494;2023-05-02T07:23:06;100946.22;;;13.18;87.83
16355;BME280;8287;51.644;8.494;2023-05-02T07:25:33;100954.44;;;13.30;87.20
16355;BME280;8287;51.644;8.494;2023-05-02T07:28:00;100959.50;;;13.40;87.04
16355;BME280;8287;51.644;8.494;2023-05-02T07:30:28;100964.69;;;13.45;87.15
16355;BME280;8287;51.644;8.494;2023-05-02T07:32:55;100963.09;;;13.44;86.11
16355;BME280;8287;51.644;8.494;2023-05-02T07:35:22;100974.09;;;13.51;86.74
16355;BME280;8287;51.644;8.494;2023-05-02T07:37:48;100974.56;;;13.53;86.61
16355;BME280;8287;51.644;8.494;2023-05-02T07:40:15;100970.69;;;13.59;86.51
16355;BME280;8287;51.644;8.494;2023-05-02T07:42:42;100973.53;;;13.63;86.46
16355;BME280;8287;51.644;8.494;2023-05-02T07:45:09;100979.31;;;13.65;86.02
16355;BME280;8287;51.644;8.494;2023-05-02T07:47:37;100987.47;;;13.68;85.31
16355;BME280;8287;51.644;8.494;2023-05-02T07:50:04;100974.31;;;13.63;85.15
16355;BME280;8287;51.644;8.494;2023-05-02T07:52:31;100995.47;;;13.29;86.60
16355;BME280;8287;51.644;8.494;2023-05-02T07:54:58;101004.75;;;13.10;84.43
16355;BME280;8287;51.644;8.494;2023-05-02T07:57:25;101006.78;;;12.91;83.39
16355;BME280;8287;51.644;8.494;2023-05-02T07:59:51;101008.69;;;12.77;84.62
16355;BME280;8287;51.644;8.494;2023-05-02T08:02:20;101005.56;;;12.75;84.90
16355;BME280;8287;51.644;8.494;2023-05-02T08:04:49;101018.09;;;12.61;85.39
16355;BME280;8287;51.644;8.494;2023-05-02T08:07:16;101026.03;;;12.75;85.17
16355;BME280;8287;51.644;8.494;2023-05-02T08:09:42;101023.47;;;12.70;84.75
16355;BME280;8287;51.644;8.494;2023-05-02T08:12:09;101038.56;;;12.61;83.95
16355;BME280;8287;51.644;8.494;2023-05-02T08:14:36;101046.34;;;12.22;84.87
16355;BME280;8287;51.644;8.494;2023-05-02T08:17:02;101055.22;;;12.04;85.15
16355;BME280;8287;51.644;8.494;2023-05-02T08:19:29;101066.53;;;12.09;85.53
16355;BME280;8287;51.644;8.494;2023-05-02T08:21:57;101060.41;;;12.09;84.60
16355;BME280;8287;51.644;8.494;2023-05-02T08:24:24;101067.78;;;11.85;84.25
16355;BME280;8287;51.644;8.494;2023-05-02T08:26:51;101073.69;;;12.09;84.63
16355;BME280;8287;51.644;8.494;2023-05-02T08:29:18;101073.69;;;12.09;84.46
16355;BME280;8287;51.644;8.494;2023-05-02T08:31:44;101083.44;;;12.00;84.50
16355;BME280;8287;51.644;8.494;2023-05-02T08:34:11;101083.41;;;11.73;85.86
16355;BME280;8287;51.644;8.494;2023-05-02T08:36:37;101085.88;;;11.51;86.78
16355;BME280;8287;51.644;8.494;2023-05-02T08:39:05;101090.97;;;11.79;87.22
16355;BME280;8287;51.644;8.494;2023-05-02T08:41:33;101090.09;;;11.52;86.45
16355;BME280;8287;51.644;8.494;2023-05-02T08:44:01;101109.66;;;11.42;86.62
16355;BME280;8287;51.644;8.494;2023-05-02T08:46:29;101108.81;;;11.28;88.62
16355;BME280;8287;51.644;8.494;2023-05-02T08:48:57;101108.25;;;10.94;89.11
16355;BME280;8287;51.644;8.494;2023-05-02T08:51:26;101113.19;;;11.19;89.27
16355;BME280;8287;51.644;8.494;2023-05-02T08:53:53;101116.66;;;11.20;89.12
16355;BME280;8287;51.644;8.494;2023-05-02T08:56:21;101124.25;;;10.71;86.94
16355;BME280;8287;51.644;8.494;2023-05-02T08:58:49;101124.50;;;10.69;89.67
16355;BME280;8287;51.644;8.494;2023-05-02T09:01:17;101136.19;;;10.68;89.72
16355;BME280;8287;51.644;8.494;2023-05-02T09:03:47;101138.44;;;10.80;89.79
16355;BME280;8287;51.644;8.494;2023-05-02T09:06:15;101139.94;;;11.04;88.69
16355;BME280;8287;51.644;8.494;2023-05-02T09:08:45;101144.91;;;11.11;88.45
16355;BME280;8287;51.644;8.494;2023-05-02T09:11:13;101151.69;;;10.80;88.83
16355;BME280;8287;51.644;8.494;2023-05-02T09:13:44;101166.06;;;10.74;91.08
16355;BME280;8287;51.644;8.494;2023-05-02T09:16:12;101166.16;;;10.69;90.67
16355;BME280;8287;51.644;8.494;2023-05-02T09:18:40;101170.88;;;10.72;90.93
16355;BME280;8287;51.644;8.494;2023-05-02T09:21:08;101175.06;;;11.15;90.65
16355;BME280;8287;51.644;8.494;2023-05-02T09:23:37;101177.88;;;11.05;89.04
16355;BME280;8287;51.644;8.494;2023-05-02T09:26:16;101181.16;;;10.97;88.71
16355;BME280;8287;51.644;8.494;2023-05-02T09:28:45;101180.97;;;10.70;88.71
16355;BME280;8287;51.644;8.494;2023-05-02T09:31:13;101186.81;;;10.90;88.92
16355;BME280;8287;51.644;8.494;2023-05-02T09:33:41;101184.66;;;10.92;86.35
16355;BME280;8287;51.644;8.494;2023-05-02T09:36:09;101194.50;;;11.29;85.43
16355;BME280;8287;51.644;8.494;2023-05-02T09:38:37;101203.31;;;11.43;83.64
16355;BME280;8287;51.644;8.494;2023-05-02T09:41:04;101193.06;;;11.55;84.67
16355;BME280;8287;51.644;8.494;2023-05-02T09:43:30;101201.47;;;11.62;82.68
16355;BME280;8287;51.644;8.494;2023-05-02T09:46:00;101212.84;;;11.44;84.01
16355;BME280;8287;51.644;8.494;2023-05-02T09:48:28;101208.69;;;11.75;82.20
16355;BME280;8287;51.644;8.494;2023-05-02T09:50:55;101212.84;;;11.81;81.92
16355;BME280;8287;51.644;8.494;2023-05-02T09:53:23;101212.25;;;11.84;82.10
16355;BME280;8287;51.644;8.494;2023-05-02T09:56:01;101219.13;;;11.85;82.06
16355;BME280;8287;51.644;8.494;2023-05-02T09:58:28;101216.94;;;11.73;83.47
16355;BME280;8287;51.644;8.494;2023-05-02T10:00:58;101223.25;;;11.59;82.92
16355;BME280;8287;51.644;8.494;2023-05-02T10:03:27;101226.53;;;11.88;82.98
16355;BME280;8287;51.644;8.494;2023-05-02T10:05:55;101220.97;;;12.03;82.08
16355;BME280;8287;51.644;8.494;2023-05-02T10:08:24;101227.88;;;12.04;81.73
16355;BME280;8287;51.644;8.494;2023-05-02T10:10:54;101226.13;;;12.13;80.27
16355;BME280;8287;51.644;8.494;2023-05-02T10:13:23;101228.94;;;12.03;80.69
16355;BME280;8287;51.644;8.494;2023-05-02T10:16:00;101226.28;;;12.03;78.70
16355;BME280;8287;51.644;8.494;2023-05-02T10:18:32;101229.91;;;11.75;79.78
16355;BME280;8287;51.644;8.494;2023-05-02T10:21:07;101234.16;;;12.08;80.30
16355;BME280;8287;51.644;8.494;2023-05-02T10:23:34;101231.34;;;11.86;79.14
16355;BME280;8287;51.644;8.494;2023-05-02T10:26:01;101242.22;;;12.03;80.04
16355;BME280;8287;51.644;8.494;2023-05-02T10:28:29;101248.44;;;11.61;80.09
16355;BME280;8287;51.644;8.494;2023-05-02T10:30:57;101251.75;;;11.72;80.62
16355;BME280;8287;51.644;8.494;2023-05-02T10:33:30;101249.44;;;11.47;82.03
16355;BME280;8287;51.644;8.494;2023-05-02T10:36:00;101243.63;;;11.82;80.50
16355;BME280;8287;51.644;8.494;2023-05-02T10:38:27;101254.63;;;12.07;78.67
16355;BME280;8287;51.644;8.494;2023-05-02T10:40:57;101254.03;;;11.60;77.45
16355;BME280;8287;51.644;8.494;2023-05-02T10:43:29;101255.97;;;11.91;78.97
16355;BME280;8287;51.644;8.494;2023-05-02T10:45:57;101267.94;;;11.89;76.39
16355;BME280;8287;51.644;8.494;2023-05-02T10:48:25;101266.13;;;12.03;77.01
16355;BME280;8287;51.644;8.494;2023-05-02T10:50:54;101264.31;;;11.66;75.34
16355;BME280;8287;51.644;8.494;2023-05-02T10:53:27;101262.97;;;12.01;76.94
16355;BME280;8287;51.644;8.494;2023-05-02T10:56:16;101270.50;;;12.26;76.42
16355;BME280;8287;51.644;8.494;2023-05-02T10:58:46;101266.91;;;12.35;73.78
16355;BME280;8287;51.644;8.494;2023-05-02T11:01:34;101261.88;;;12.34;73.19
16355;BME280;8287;51.644;8.494;2023-05-02T11:04:03;101260.91;;;12.43;72.92
16355;BME280;8287;51.644;8.494;2023-05-02T11:06:33;101263.66;;;12.52;73.09
16355;BME280;8287;51.644;8.494;2023-05-02T11:09:30;101267.72;;;12.49;71.54
16355;BME280;8287;51.644;8.494;2023-05-02T11:11:58;101268.59;;;12.45;70.72
16355;BME280;8287;51.644;8.494;2023-05-02T11:14:46;101268.59;;;12.45;70.86
16355;BME280;8287;51.644;8.494;2023-05-02T11:17:14;101272.84;;;12.59;72.00
16355;BME280;8287;51.644;8.494;2023-05-02T11:22:59;101263.59;;;12.57;71.51
16355;BME280;8287;51.644;8.494;2023-05-02T11:25:47;101266.06;;;12.67;71.19
16355;BME280;8287;51.644;8.494;2023-05-02T11:28:39;101267.13;;;12.66;71.73
16355;BME280;8287;51.644;8.494;2023-05-02T11:31:07;101266.53;;;12.55;71.70
16355;BME280;8287;51.644;8.494;2023-05-02T11:33:34;101266.16;;;12.62;71.46
16355;BME280;8287;51.644;8.494;2023-05-02T11:36:01;101275.72;;;12.63;70.97
16355;BME280;8287;51.644;8.494;2023-05-02T11:38:35;101271.47;;;12.62;71.80
16355;BME280;8287;51.644;8.494;2023-05-02T11:41:01;101276.97;;;12.65;71.84
16355;BME280;8287;51.644;8.494;2023-05-02T11:43:29;101277.78;;;12.66;70.55
16355;BME280;8287;51.644;8.494;2023-05-02T11:45:56;101275.72;;;12.63;70.95
16355;BME280;8287;51.644;8.494;2023-05-02T11:48:24;101279.66;;;12.79;71.81
16355;BME280;8287;51.644;8.494;2023-05-02T11:50:54;101278.56;;;12.80;70.72
16355;BME280;8287;51.644;8.494;2023-05-02T11:53:22;101272.94;;;12.81;72.18
16355;BME280;8287;51.644;8.494;2023-05-02T11:55:52;101289.09;;;12.71;72.20
16355;BME280;8287;51.644;8.494;2023-05-02T11:58:21;101294.41;;;12.85;70.13
16355;BME280;8287;51.644;8.494;2023-05-02T12:00:49;101297.34;;;12.56;71.29
16355;BME280;8287;51.644;8.494;2023-05-02T12:03:27;101299.56;;;12.36;72.82
16355;BME280;8287;51.644;8.494;2023-05-02T12:05:55;101310.66;;;12.70;72.25
16355;BME280;8287;51.644;8.494;2023-05-02T12:08:24;101294.75;;;12.83;70.73
16355;BME280;8287;51.644;8.494;2023-05-02T12:10:54;101305.19;;;12.93;70.04
16355;BME280;8287;51.644;8.494;2023-05-02T12:13:22;101307.19;;;13.01;69.84
16355;BME280;8287;51.644;8.494;2023-05-02T12:15:50;101306.78;;;13.08;69.15
16355;BME280;8287;51.644;8.494;2023-05-02T12:18:18;101313.19;;;13.07;68.44
16355;BME280;8287;51.644;8.494;2023-05-02T12:20:48;101317.34;;;12.99;68.67
16355;BME280;8287;51.644;8.494;2023-05-02T12:23:15;101318.22;;;13.08;69.80
16355;BME280;8287;51.644;8.494;2023-05-02T12:25:42;101322.81;;;13.03;69.94
16355;BME280;8287;51.644;8.494;2023-05-02T12:28:10;101329.53;;;12.87;71.13
16355;BME280;8287;51.644;8.494;2023-05-02T12:30:38;101333.34;;;12.81;70.58
16355;BME280;8287;51.644;8.494;2023-05-02T12:33:06;101328.31;;;12.93;70.52
16355;BME280;8287;51.644;8.494;2023-05-02T12:35:33;101331.94;;;12.70;70.16
16355;BME280;8287;51.644;8.494;2023-05-02T12:38:08;101328.19;;;12.25;69.35
16355;BME280;8287;51.644;8.494;2023-05-02T12:40:35;101335.06;;;11.94;71.13
16355;BME280;8287;51.644;8.494;2023-05-02T12:43:02;101342.34;;;12.53;71.82
16355;BME280;8287;51.644;8.494;2023-05-02T12:45:33;101338.09;;;12.97;69.30
16355;BME280;8287;51.644;8.494;2023-05-02T12:48:00;101332.22;;;13.14;68.83
16355;BME280;8287;51.644;8.494;2023-05-02T12:50:36;101335.53;;;13.32;67.73
16355;BME280;8287;51.644;8.494;2023-05-02T12:53:03;101339.88;;;13.42;67.44
16355;BME280;8287;51.644;8.494;2023-05-02T12:55:31;101338.88;;;13.51;66.90
16355;BME280;8287;51.644;8.494;2023-05-02T12:58:01;101331.97;;;13.50;66.65
16355;BME280;8287;51.644;8.494;2023-05-02T13:00:28;101339.53;;;13.57;66.47
16355;BME280;8287;51.644;8.494;2023-05-02T13:02:57;101345.75;;;13.52;65.61
16355;BME280;8287;51.644;8.494;2023-05-02T13:05:24;101344.81;;;13.48;67.32
16355;BME280;8287;51.644;8.494;2023-05-02T13:07:51;101344.31;;;13.46;65.99
16355;BME280;8287;51.644;8.494;2023-05-02T13:10:18;101344.88;;;13.43;66.43